Time;durP1;ratioP1;P1;durP2;ratioP2;P2;SDS_P1;SDS_P2;PMS_P1;PMS_P2;Temp;Humidity;BMP_temperature;BMP_pressure;BME280_temperature;BME280_humidity;BME280_pressure;Samples;Min_cycle;Max_cycle;Signal;HPM_P1;HPM_P2
2023/12/18 12:58:42;;;;;;;23.87;16.30;;;;;;;5.99;100.00;102921.84;5269702;28;20385;-76
2023/12/18 13:01:13;;;;;;;21.00;14.87;;;;;;;5.98;100.00;102904.53;5258738;28;20044;-72
2023/12/18 13:03:46;;;;;;;18.10;12.33;;;;;;;6.07;100.00;102916.66;5254021;28;20034;-75
2023/12/18 13:06:19;;;;;;;17.90;12.77;;;;;;;5.99;100.00;102919.25;5253982;28;20030;-78
2023/12/18 13:08:50;;;;;;;25.07;14.80;;;;;;;6.07;100.00;102914.06;5281807;28;20048;-76
2023/12/18 13:11:22;;;;;;;21.23;14.03;;;;;;;6.07;100.00;102914.06;5247038;28;20026;-74
2023/12/18 13:13:54;;;;;;;26.63;15.23;;;;;;;6.12;100.00;102920.94;5249859;28;20037;-75
2023/12/18 13:16:25;;;;;;;22.13;12.93;;;;;;;6.09;100.00;102899.28;5234506;28;20029;-74
2023/12/18 13:18:56;;;;;;;23.57;13.50;;;;;;;6.12;100.00;102894.06;5249420;28;20438;-74
2023/12/18 13:21:27;;;;;;;20.40;12.80;;;;;;;6.10;100.00;102891.47;5237768;28;20023;-72
2023/12/18 13:23:59;;;;;;;23.43;14.63;;;;;;;6.13;100.00;102900.97;5251758;28;20059;-73
2023/12/18 13:26:30;;;;;;;26.37;13.50;;;;;;;6.23;100.00;102884.41;5256258;28;20037;-74
2023/12/18 13:29:01;;;;;;;21.70;13.13;;;;;;;6.16;100.00;102881.00;5249525;28;20025;-73
2023/12/18 13:31:33;;;;;;;20.30;12.77;;;;;;;6.17;100.00;102868.88;5251315;28;20029;-74
2023/12/18 13:34:04;;;;;;;21.97;13.07;;;;;;;6.21;100.00;102859.31;5242828;28;20084;-74
2023/12/18 13:36:36;;;;;;;16.80;13.10;;;;;;;6.27;100.00;102854.91;5256398;28;20029;-72
2023/12/18 13:39:07;;;;;;;23.60;13.40;;;;;;;6.18;100.00;102854.97;5248322;28;20094;-75
2023/12/18 13:41:39;;;;;;;20.73;13.53;;;;;;;6.15;100.00;102844.59;5249988;28;20040;-73
2023/12/18 13:44:11;;;;;;;20.33;12.73;;;;;;;6.22;100.00;102853.22;5250587;28;20090;-76
2023/12/18 13:46:42;;;;;;;18.50;12.93;;;;;;;6.20;100.00;102862.75;5250417;28;20048;-73
2023/12/18 13:49:14;;;;;;;19.97;12.83;;;;;;;6.09;100.00;102868.91;5249631;28;20025;-71
2023/12/18 13:51:45;;;;;;;17.87;12.53;;;;;;;6.07;100.00;102882.81;5252312;28;20041;-75
2023/12/18 13:54:16;;;;;;;20.23;12.63;;;;;;;6.11;100.00;102867.19;5252512;28;20033;-76
2023/12/18 13:56:53;;;;;;;18.10;12.03;;;;;;;6.18;100.00;102865.38;5258244;28;20341;-76
2023/12/18 13:59:24;;;;;;;19.63;12.30;;;;;;;6.11;100.00;102861.13;5248472;28;20064;-81
2023/12/18 14:01:55;;;;;;;25.13;13.17;;;;;;;6.21;100.00;102857.56;5259733;28;20045;-81
2023/12/18 14:04:27;;;;;;;19.70;13.07;;;;;;;6.16;100.00;102851.53;5253394;28;20030;-80
2023/12/18 14:06:59;;;;;;;18.23;12.10;;;;;;;6.21;100.00;102857.56;5245355;28;20048;-76
2023/12/18 14:09:30;;;;;;;19.50;12.47;;;;;;;6.20;100.00;102861.03;5239450;28;20415;-72
2023/12/18 14:12:01;;;;;;;17.53;12.97;;;;;;;6.28;100.00;102854.00;5221215;28;20038;-74
2023/12/18 14:14:33;;;;;;;19.37;12.20;;;;;;;6.16;100.00;102843.75;5230238;28;20101;-77
2023/12/18 14:17:04;;;;;;;25.60;13.10;;;;;;;6.11;100.00;102842.91;5228479;28;20029;-71
2023/12/18 14:19:35;;;;;;;20.90;12.33;;;;;;;6.15;100.00;102831.59;5233247;28;20030;-70
2023/12/18 14:22:08;;;;;;;22.13;13.03;;;;;;;6.12;100.00;102839.44;5233937;28;20025;-81
2023/12/18 14:24:39;;;;;;;22.87;13.00;;;;;;;6.05;100.00;102842.09;5235578;28;20033;-74
2023/12/18 14:27:10;;;;;;;22.73;14.17;;;;;;;6.01;100.00;102824.75;5235950;28;20484;-71
2023/12/18 14:29:41;;;;;;;24.10;13.60;;;;;;;6.01;100.00;102844.69;5235165;28;20456;-73
2023/12/18 14:32:13;;;;;;;24.40;13.20;;;;;;;6.05;100.00;102846.44;5228323;28;20021;-73
2023/12/18 14:34:44;;;;;;;20.43;12.53;;;;;;;6.02;100.00;102857.66;5228988;28;20120;-72
2023/12/18 14:37:17;;;;;;;23.50;13.13;;;;;;;6.08;100.00;102861.13;5265784;28;20038;-74
2023/12/18 14:39:48;;;;;;;23.30;12.43;;;;;;;6.02;100.00;102836.88;5237759;28;20033;-72
2023/12/18 14:42:20;;;;;;;20.93;13.20;;;;;;;6.00;100.00;102848.16;5235701;28;20220;-73
2023/12/18 14:44:54;;;;;;;25.60;13.37;;;;;;;5.95;100.00;102834.34;5237944;28;20033;-74
2023/12/18 14:47:25;;;;;;;26.63;13.40;;;;;;;6.08;100.00;102854.19;5237121;28;20041;-74
2023/12/18 14:49:56;;;;;;;22.97;14.17;;;;;;;5.98;100.00;102856.00;5244536;28;20480;-75
2023/12/18 14:52:28;;;;;;;22.03;14.97;;;;;;;6.00;100.00;102854.25;5240037;28;20026;-73
2023/12/18 14:55:02;;;;;;;24.90;13.63;;;;;;;6.05;100.00;102847.31;5235422;28;20037;-74
2023/12/18 14:57:33;;;;;;;19.60;12.57;;;;;;;5.92;100.00;102853.41;5231081;28;20053;-74
2023/12/18 15:00:05;;;;;;;23.30;12.97;;;;;;;5.88;100.00;102854.34;5237193;28;20034;-72
2023/12/18 15:02:36;;;;;;;23.43;13.63;;;;;;;5.98;100.00;102835.19;5237009;28;20025;-73
2023/12/18 15:05:08;;;;;;;23.13;13.53;;;;;;;6.10;100.00;102849.84;5231215;28;20021;-72
2023/12/18 15:07:39;;;;;;;20.57;12.50;;;;;;;5.94;100.00;102838.66;5229679;28;20225;-72
2023/12/18 15:10:10;;;;;;;20.83;13.70;;;;;;;5.98;100.00;102832.56;5241674;28;20025;-72
2023/12/18 15:12:41;;;;;;;23.37;13.87;;;;;;;5.92;100.00;102845.63;5241439;28;20056;-73
2023/12/18 15:15:13;;;;;;;34.70;14.97;;;;;;;5.90;100.00;102829.19;5233642;28;20029;-71
2023/12/18 15:17:44;;;;;;;21.70;12.60;;;;;;;5.76;100.00;102801.53;5232467;28;20028;-73
2023/12/18 15:20:16;;;;;;;18.90;13.00;;;;;;;5.76;100.00;102808.47;5226670;28;20119;-73
2023/12/18 15:22:47;;;;;;;23.17;13.57;;;;;;;5.83;100.00;102809.28;5230525;28;20071;-73
2023/12/18 15:25:18;;;;;;;24.57;13.13;;;;;;;5.76;100.00;102804.13;5228647;28;20033;-74
2023/12/18 15:27:50;;;;;;;25.97;14.63;;;;;;;5.75;100.00;102823.22;5227247;28;20551;-73
2023/12/18 15:30:21;;;;;;;24.40;15.17;;;;;;;5.73;100.00;102832.75;5235080;28;20030;-73
2023/12/18 15:32:53;;;;;;;24.30;15.27;;;;;;;5.67;100.00;102828.44;5235267;28;20017;-74
2023/12/18 15:35:24;;;;;;;24.23;13.30;;;;;;;5.57;100.00;102829.38;5234941;28;21147;-73
2023/12/18 15:37:55;;;;;;;22.13;14.70;;;;;;;5.62;100.00;102826.78;5233785;28;20074;-72
2023/12/18 15:40:27;;;;;;;22.23;15.23;;;;;;;5.42;100.00;102828.63;5234670;28;20049;-77
2023/12/18 15:42:58;;;;;;;19.50;13.63;;;;;;;5.50;100.00;102830.34;5265958;28;20539;-74
2023/12/18 15:45:30;;;;;;;19.67;14.10;;;;;;;5.54;100.00;102830.28;5239433;28;20116;-77
2023/12/18 15:48:01;;;;;;;22.97;14.07;;;;;;;5.51;100.00;102826.84;5231479;28;20100;-73
2023/12/18 15:50:33;;;;;;;26.93;14.90;;;;;;;5.56;100.00;102838.06;5227662;28;20104;-71
2023/12/18 15:53:04;;;;;;;24.33;15.77;;;;;;;5.40;100.00;102819.09;5231038;28;20077;-68
2023/12/18 15:55:36;;;;;;;22.47;14.10;;;;;;;5.33;100.00;102821.75;5231330;28;20061;-70
2023/12/18 15:58:07;;;;;;;21.63;15.00;;;;;;;5.43;100.00;102825.16;5225344;28;20080;-72
2023/12/18 16:00:38;;;;;;;25.00;14.57;;;;;;;5.43;100.00;102827.75;5270629;28;20165;-71
2023/12/18 16:03:10;;;;;;;24.83;16.10;;;;;;;5.35;100.00;102820.88;5240865;28;20029;-70
2023/12/18 16:05:41;;;;;;;33.47;16.93;;;;;;;5.27;100.00;102815.72;5241952;28;20236;-72
2023/12/18 16:08:12;;;;;;;21.30;15.40;;;;;;;5.25;100.00;102810.53;5223525;28;20017;-76
2023/12/18 16:10:44;;;;;;;25.47;16.87;;;;;;;4.97;100.00;102787.31;5229968;28;20022;-79
2023/12/18 16:13:15;;;;;;;29.00;16.50;;;;;;;5.26;100.00;102804.47;5229500;28;20033;-84
2023/12/18 16:15:46;;;;;;;26.47;16.50;;;;;;;5.14;100.00;102794.13;5231719;28;20570;-80
2023/12/18 16:18:18;;;;;;;24.87;17.47;;;;;;;5.18;100.00;102812.28;5231490;28;20032;-78
2023/12/18 16:20:49;;;;;;;27.43;17.57;;;;;;;5.15;100.00;102798.47;5230702;28;20035;-78
2023/12/18 16:23:21;;;;;;;23.33;16.77;;;;;;;5.07;100.00;102785.53;5229761;28;20439;-79
2023/12/18 16:25:54;;;;;;;24.10;16.77;;;;;;;5.10;100.00;102797.63;5230289;28;20067;-75
2023/12/18 16:28:26;;;;;;;23.60;16.13;;;;;;;5.03;100.00;102802.84;5227356;28;20325;-76
2023/12/18 16:30:57;;;;;;;26.43;18.80;;;;;;;5.00;100.00;102800.28;5253577;28;20146;-77
2023/12/18 16:33:29;;;;;;;26.10;17.93;;;;;;;5.01;100.00;102770.81;5231665;28;20033;-76
2023/12/18 16:36:00;;;;;;;24.37;16.97;;;;;;;5.04;100.00;102778.63;5230218;28;20060;-69
2023/12/18 16:38:31;;;;;;;24.37;18.17;;;;;;;5.05;100.00;102761.28;5233556;28;20028;-70
2023/12/18 16:41:03;;;;;;;25.83;17.13;;;;;;;4.94;100.00;102762.19;5199333;28;20025;-74
2023/12/18 16:43:34;;;;;;;23.73;16.67;;;;;;;5.19;100.00;102775.06;5218991;28;20121;-72
2023/12/18 16:46:05;;;;;;;25.50;17.57;;;;;;;5.13;100.00;102782.03;5220165;28;20076;-74
2023/12/18 16:48:37;;;;;;;24.03;17.57;;;;;;;5.03;100.00;102786.38;5220809;28;20707;-73
2023/12/18 16:51:08;;;;;;;28.33;18.37;;;;;;;5.04;100.00;102794.19;5216796;28;20083;-71
2023/12/18 16:53:39;;;;;;;24.37;17.43;;;;;;;5.07;100.00;102783.78;5219582;28;20480;-75
2023/12/18 16:56:11;;;;;;;26.07;18.23;;;;;;;5.13;100.00;102789.81;5215710;28;20376;-77
2023/12/18 16:58:42;;;;;;;23.70;16.37;;;;;;;4.86;100.00;102781.28;5174786;28;20038;-75
2023/12/18 17:01:13;;;;;;;23.50;17.53;;;;;;;4.93;100.00;102782.97;5216999;28;20025;-75
2023/12/18 17:03:44;;;;;;;26.30;17.83;;;;;;;4.93;100.00;102775.19;5226852;28;20025;-74
2023/12/18 17:06:16;;;;;;;24.97;17.10;;;;;;;4.85;100.00;102770.06;5223398;28;20021;-75
2023/12/18 17:08:47;;;;;;;26.20;17.63;;;;;;;4.89;100.00;102773.47;5223157;28;20026;-75
2023/12/18 17:11:19;;;;;;;24.73;18.20;;;;;;;4.90;100.00;102777.81;5221345;28;20124;-74
2023/12/18 17:13:50;;;;;;;26.90;18.47;;;;;;;4.86;100.00;102781.28;5220222;28;20029;-73
2023/12/18 17:16:22;;;;;;;26.27;17.70;;;;;;;4.83;100.00;102776.97;5221789;28;20443;-75
2023/12/18 17:18:53;;;;;;;23.80;16.80;;;;;;;4.91;100.00;102792.50;5220907;28;20480;-74
2023/12/18 17:21:24;;;;;;;25.37;18.90;;;;;;;4.78;100.00;102789.13;5223487;28;20030;-76
2023/12/18 17:23:56;;;;;;;23.53;18.13;;;;;;;4.84;100.00;102807.25;5219885;28;20052;-76
2023/12/18 17:26:27;;;;;;;24.83;17.97;;;;;;;4.90;100.00;102806.38;5219604;28;20387;-73
2023/12/18 17:28:58;;;;;;;22.33;17.00;;;;;;;4.72;100.00;102784.81;5218310;28;20037;-72
2023/12/18 17:31:30;;;;;;;25.17;16.17;;;;;;;4.86;100.00;102802.94;5217973;28;20431;-71
2023/12/18 17:34:01;;;;;;;22.00;16.23;;;;;;;4.80;100.00;102821.97;5222706;28;20033;-73
2023/12/18 17:36:34;;;;;;;24.80;17.47;;;;;;;4.88;100.00;102808.09;5227997;28;20108;-74
2023/12/18 17:39:05;;;;;;;20.60;15.50;;;;;;;4.74;100.00;102784.78;5225445;28;20028;-72
2023/12/18 17:41:36;;;;;;;22.37;15.60;;;;;;;4.74;100.00;102793.47;5224345;28;20273;-74
2023/12/18 17:44:08;;;;;;;22.83;15.13;;;;;;;4.77;100.00;102779.59;5222633;28;20034;-73
2023/12/18 17:46:39;;;;;;;25.63;16.27;;;;;;;4.75;100.00;102770.97;5217887;28;20029;-72
2023/12/18 17:49:10;;;;;;;22.17;15.37;;;;;;;4.88;100.00;102772.63;5230298;28;20571;-71
2023/12/18 17:51:42;;;;;;;22.43;15.77;;;;;;;4.79;100.00;102759.69;5227495;28;20166;-72
2023/12/18 17:54:14;;;;;;;25.73;16.63;;;;;;;5.00;100.00;102756.13;5232229;28;20051;-73
2023/12/18 17:56:45;;;;;;;22.80;16.83;;;;;;;4.94;100.00;102746.63;5230081;28;20056;-74
2023/12/18 17:59:16;;;;;;;21.53;15.40;;;;;;;4.90;100.00;102744.06;5230597;28;20037;-72
2023/12/18 18:01:48;;;;;;;25.40;16.77;;;;;;;4.97;100.00;102724.97;5226770;28;20724;-74
2023/12/18 18:04:19;;;;;;;22.97;16.63;;;;;;;5.03;100.00;102706.75;5229652;28;20040;-75
2023/12/18 18:06:50;;;;;;;23.83;16.00;;;;;;;5.04;100.00;102690.31;5227382;28;20033;-75
2023/12/18 18:09:22;;;;;;;28.23;17.93;;;;;;;5.06;100.00;102685.94;5225435;28;20037;-77
2023/12/18 18:11:54;;;;;;;27.93;15.50;;;;;;;4.78;100.00;102696.50;5225825;28;20476;-74
2023/12/18 18:14:25;;;;;;;24.83;15.83;;;;;;;4.82;100.00;102711.19;5229103;28;20076;-70
2023/12/18 18:16:56;;;;;;;28.70;16.70;;;;;;;5.02;100.00;102712.84;5229687;28;20034;-71
2023/12/18 18:19:28;;;;;;;29.07;17.00;;;;;;;4.93;100.00;102708.56;5227364;28;20108;-70
2023/12/18 18:22:00;;;;;;;25.87;17.03;;;;;;;4.90;100.00;102720.69;5225933;28;20033;-70
2023/12/18 18:24:33;;;;;;;28.07;17.63;;;;;;;4.87;100.00;102723.31;5226264;28;20345;-70
2023/12/18 18:27:04;;;;;;;25.30;17.73;;;;;;;4.75;100.00;102713.84;5225143;28;20317;-74
2023/12/18 18:29:35;;;;;;;28.40;19.00;;;;;;;4.67;100.00;102700.91;5223041;28;20033;-71
2023/12/18 18:32:09;;;;;;;26.87;18.33;;;;;;;4.71;100.00;102715.59;5231716;28;20408;-72
2023/12/18 18:34:42;;;;;;;24.27;17.63;;;;;;;4.70;100.00;102706.94;5225708;28;20030;-72
2023/12/18 18:37:13;;;;;;;29.73;18.87;;;;;;;4.71;100.00;102711.25;5229181;28;20048;-70
2023/12/18 18:39:45;;;;;;;29.10;18.93;;;;;;;4.75;100.00;102719.88;5227759;28;20033;-70
2023/12/18 18:42:16;;;;;;;27.80;19.67;;;;;;;4.70;100.00;102711.25;5228714;28;20447;-72
2023/12/18 18:44:48;;;;;;;33.70;20.07;;;;;;;4.68;100.00;102718.19;5225016;28;20037;-71
2023/12/18 18:47:19;;;;;;;24.40;18.40;;;;;;;4.70;100.00;102704.34;5225132;28;20033;-71
2023/12/18 18:49:50;;;;;;;30.13;19.57;;;;;;;4.65;100.00;102702.63;5223909;28;21249;-72
2023/12/18 18:52:21;;;;;;;33.10;19.00;;;;;;;4.65;100.00;102702.63;5228263;28;20029;-72
2023/12/18 18:54:54;;;;;;;28.30;17.67;;;;;;;4.64;100.00;102690.53;5224416;28;20037;-72
2023/12/18 18:57:25;;;;;;;30.83;20.27;;;;;;;4.67;100.00;102674.94;5227933;28;20081;-71
2023/12/18 18:59:57;;;;;;;31.37;21.03;;;;;;;4.69;100.00;102679.28;5222032;28;20132;-72
2023/12/18 19:02:28;;;;;;;29.13;18.03;;;;;;;4.66;100.00;102701.78;5226248;28;20385;-72
2023/12/18 19:04:59;;;;;;;32.90;20.10;;;;;;;4.57;100.00;102695.75;5226790;28;20077;-70
2023/12/18 19:07:31;;;;;;;48.80;21.33;;;;;;;4.50;100.00;102699.25;5226363;28;20025;-71
2023/12/18 19:10:03;;;;;;;31.30;20.03;;;;;;;4.58;100.00;102704.41;5227692;28;20108;-72
2023/12/18 19:12:39;;;;;;;30.63;19.37;;;;;;;4.51;100.00;102682.81;5224868;28;20083;-72
2023/12/18 19:15:11;;;;;;;30.30;20.53;;;;;;;4.51;100.00;102698.38;5224942;28;20541;-73
2023/12/18 19:17:42;;;;;;;31.10;21.07;;;;;;;4.50;100.00;102694.06;5223072;28;20049;-71
2023/12/18 19:20:14;;;;;;;36.40;25.67;;;;;;;4.54;100.00;102685.38;5229144;28;20037;-71
2023/12/18 19:22:46;;;;;;;27.63;18.43;;;;;;;4.53;100.00;102678.47;5228373;28;20104;-71
2023/12/18 19:25:17;;;;;;;30.80;19.43;;;;;;;4.55;100.00;102687.13;5225834;28;20040;-75
2023/12/18 19:27:49;;;;;;;29.53;19.83;;;;;;;4.55;100.00;102681.94;5231096;28;20037;-70
2023/12/18 19:30:20;;;;;;;30.40;19.27;;;;;;;4.52;100.00;102668.94;5229241;28;20082;-70
2023/12/18 19:32:51;;;;;;;29.53;19.43;;;;;;;4.51;100.00;102680.22;5227924;28;20069;-71
2023/12/18 19:35:23;;;;;;;30.40;17.00;;;;;;;4.56;100.00;102681.03;5223619;28;20075;-72
2023/12/18 19:37:54;;;;;;;29.13;18.23;;;;;;;4.47;100.00;102678.47;5221705;28;20620;-71
2023/12/18 19:40:25;;;;;;;29.30;19.07;;;;;;;4.59;100.00;102675.84;5223409;28;20033;-72
2023/12/18 19:42:57;;;;;;;36.77;19.70;;;;;;;4.42;100.00;102675.91;5226549;28;20036;-71
2023/12/18 19:45:28;;;;;;;29.47;18.07;;;;;;;4.51;100.00;102682.81;5224598;28;20252;-71
2023/12/18 19:47:59;;;;;;;30.30;19.30;;;;;;;4.41;100.00;102687.19;5224803;28;20041;-71
2023/12/18 19:50:31;;;;;;;38.53;19.40;;;;;;;4.46;100.00;102697.53;5224022;28;20440;-72
2023/12/18 19:53:03;;;;;;;32.40;19.47;;;;;;;4.49;100.00;102692.31;5225123;28;20104;-72
2023/12/18 19:55:35;;;;;;;31.67;19.57;;;;;;;4.48;100.00;102690.59;5221721;28;20116;-72
2023/12/18 19:58:06;;;;;;;29.13;18.40;;;;;;;4.57;100.00;102689.72;5221454;28;20298;-72
2023/12/18 20:00:37;;;;;;;26.43;19.33;;;;;;;4.51;100.00;102682.81;5223749;28;20038;-72
2023/12/18 20:03:09;;;;;;;30.33;19.00;;;;;;;4.48;100.00;102682.81;5222448;28;20116;-74
2023/12/18 20:05:40;;;;;;;30.53;18.73;;;;;;;4.46;100.00;102682.84;5223099;28;20029;-72
2023/12/18 20:08:11;;;;;;;29.20;18.97;;;;;;;4.68;100.00;102672.34;5220899;28;20029;-73
2023/12/18 20:10:43;;;;;;;30.00;19.33;;;;;;;4.75;100.00;102673.16;5222773;28;20095;-73
2023/12/18 20:13:15;;;;;;;26.47;17.43;;;;;;;4.70;100.00;102680.09;5221666;28;20048;-75
2023/12/18 20:15:47;;;;;;;27.60;18.47;;;;;;;4.46;100.00;102682.84;5226018;28;20030;-72
2023/12/18 20:18:19;;;;;;;30.10;19.60;;;;;;;4.52;100.00;102691.47;5223711;28;20041;-73
2023/12/18 20:20:51;;;;;;;28.33;19.20;;;;;;;4.48;100.00;102685.41;5221742;28;20040;-71
2023/12/18 20:23:22;;;;;;;29.00;19.50;;;;;;;4.46;100.00;102677.66;5223845;28;20381;-78
2023/12/18 20:25:53;;;;;;;29.23;18.73;;;;;;;4.50;100.00;102672.44;5221168;28;20025;-70
2023/12/18 20:28:31;;;;;;;29.93;19.37;;;;;;;4.54;100.00;102685.38;5225348;28;20038;-76
2023/12/18 20:31:02;;;;;;;27.07;18.57;;;;;;;4.50;100.00;102675.91;5222573;28;20068;-72
2023/12/18 20:33:33;;;;;;;29.37;19.77;;;;;;;4.46;100.00;102681.97;5222784;28;20112;-73
2023/12/18 20:36:05;;;;;;;28.97;19.53;;;;;;;4.53;100.00;102686.25;5224686;28;20516;-73
2023/12/18 20:38:36;;;;;;;32.67;20.50;;;;;;;4.52;100.00;102692.28;5224755;28;20041;-73
2023/12/18 20:41:08;;;;;;;30.07;20.63;;;;;;;4.47;100.00;102691.47;5226763;28;20030;-74
2023/12/18 20:43:39;;;;;;;30.30;19.83;;;;;;;4.56;100.00;102698.34;5224639;28;20024;-76
2023/12/18 20:46:10;;;;;;;27.27;18.47;;;;;;;4.53;100.00;102694.03;5227311;28;20029;-79
2023/12/18 20:48:42;;;;;;;30.33;19.03;;;;;;;4.53;100.00;102693.16;5232235;28;20446;-75
2023/12/18 20:51:13;;;;;;;31.10;18.97;;;;;;;4.52;100.00;102676.72;5225261;28;20106;-74
2023/12/18 20:53:44;;;;;;;29.93;19.53;;;;;;;4.53;100.00;102651.66;5230462;28;20033;-73
2023/12/18 20:56:15;;;;;;;34.70;21.40;;;;;;;4.51;100.00;102635.22;5234953;28;20036;-74
2023/12/18 20:58:47;;;;;;;33.80;20.90;;;;;;;4.59;100.00;102647.28;5235422;28;20017;-75
2023/12/18 21:01:18;;;;;;;36.10;21.17;;;;;;;4.51;100.00;102638.69;5238485;28;20055;-72
2023/12/18 21:03:49;;;;;;;30.03;20.43;;;;;;;4.47;100.00;102622.28;5260077;28;20033;-73
2023/12/18 21:06:21;;;;;;;36.20;21.13;;;;;;;4.53;100.00;102620.50;5235844;28;20072;-71
2023/12/18 21:08:52;;;;;;;34.43;20.83;;;;;;;4.58;100.00;102611.84;5240172;28;20179;-74
2023/12/18 21:11:23;;;;;;;31.73;21.87;;;;;;;4.55;100.00;102619.66;5245527;28;20044;-72
2023/12/18 21:13:55;;;;;;;31.33;21.03;;;;;;;4.56;100.00;102610.97;5243938;28;20072;-73
2023/12/18 21:16:26;;;;;;;33.70;19.10;;;;;;;4.60;100.00;102612.69;5232073;28;20529;-74
2023/12/18 21:18:59;;;;;;;29.30;20.70;;;;;;;4.59;100.00;102600.56;5231140;28;20061;-73
2023/12/18 21:21:31;;;;;;;30.63;19.00;;;;;;;4.54;100.00;102580.72;5238930;28;20083;-72
2023/12/18 21:24:02;;;;;;;30.07;20.90;;;;;;;4.49;100.00;102557.38;5245358;28;20037;-75
2023/12/18 21:26:33;;;;;;;35.73;21.43;;;;;;;4.53;100.00;102572.06;5236073;28;20120;-74
2023/12/18 21:29:05;;;;;;;34.10;19.93;;;;;;;4.59;100.00;102579.81;5240549;28;20060;-74
2023/12/18 21:31:36;;;;;;;36.17;19.70;;;;;;;4.67;100.00;102571.13;5236913;28;20099;-72
2023/12/18 21:34:08;;;;;;;33.57;21.07;;;;;;;4.60;100.00;102576.38;5234568;28;20025;-73
2023/12/18 21:36:39;;;;;;;28.23;20.30;;;;;;;4.68;100.00;102557.25;5237002;28;20029;-74
2023/12/18 21:39:10;;;;;;;29.90;21.23;;;;;;;4.57;100.00;102565.13;5242279;28;20057;-74
2023/12/18 21:41:42;;;;;;;34.83;23.10;;;;;;;4.65;100.00;102562.47;5231808;28;20034;-73
2023/12/18 21:44:13;;;;;;;31.87;20.27;;;;;;;4.59;100.00;102553.88;5240022;28;20095;-75
2023/12/18 21:46:45;;;;;;;31.47;20.50;;;;;;;4.64;100.00;102551.25;5239341;28;20039;-74
2023/12/18 21:49:16;;;;;;;30.73;19.83;;;;;;;4.62;100.00;102546.94;5238411;28;20321;-74
2023/12/18 21:51:47;;;;;;;31.60;20.97;;;;;;;4.63;100.00;102541.72;5234798;28;20040;-72
2023/12/18 21:54:22;;;;;;;34.53;21.37;;;;;;;4.69;100.00;102559.00;5226391;28;20026;-71
2023/12/18 21:56:53;;;;;;;28.92;18.95;;;;;;;4.63;100.00;102559.03;5262725;28;20045;-72
2023/12/18 21:59:24;;;;;;;28.67;19.97;;;;;;;4.65;100.00;102567.66;5223875;28;20025;-71
2023/12/18 22:01:56;;;;;;;31.93;21.90;;;;;;;4.63;100.00;102569.41;5246951;28;20028;-72
2023/12/18 22:04:28;;;;;;;30.80;20.17;;;;;;;4.67;100.00;102597.94;5239077;28;20946;-72
2023/12/18 22:06:59;;;;;;;31.27;19.53;;;;;;;4.60;100.00;102593.66;5239105;28;20135;-73
2023/12/18 22:09:31;;;;;;;29.10;20.17;;;;;;;4.74;100.00;102597.91;5222356;28;20444;-72
2023/12/18 22:12:02;;;;;;;28.67;18.70;;;;;;;4.65;100.00;102599.69;5248209;28;20152;-72
